createdAt,value
2023-03-27T00:01:21.006Z,2.37
2023-03-27T00:03:51.808Z,2.73
2023-03-27T00:06:22.151Z,2.60
2023-03-27T00:08:52.602Z,2.30
2023-03-27T00:11:22.276Z,2.90
2023-03-27T00:13:54.469Z,2.40
2023-03-27T00:16:25.576Z,2.23
2023-03-27T00:18:54.426Z,2.50
2023-03-27T00:21:23.446Z,2.13
2023-03-27T00:23:54.637Z,2.27
2023-03-27T00:26:23.161Z,2.43
2023-03-27T00:28:52.820Z,2.20
2023-03-27T00:31:21.052Z,2.40
2023-03-27T00:33:49.258Z,2.07
2023-03-27T00:36:17.651Z,2.73
2023-03-27T00:38:46.012Z,2.50
2023-03-27T00:41:15.775Z,2.63
2023-03-27T00:43:44.886Z,2.30
2023-03-27T00:46:31.747Z,2.60
2023-03-27T00:49:02.887Z,2.30
2023-03-27T00:51:32.422Z,2.70
2023-03-27T00:54:01.929Z,2.37
2023-03-27T00:56:33.904Z,2.27
2023-03-27T00:59:05.589Z,2.50
2023-03-27T01:01:34.023Z,2.40
2023-03-27T01:04:04.245Z,2.80
2023-03-27T01:06:33.198Z,2.43
2023-03-27T01:09:01.358Z,2.53
2023-03-27T01:11:43.634Z,2.90
2023-03-27T01:14:22.024Z,2.30
2023-03-27T01:17:08.309Z,2.70
2023-03-27T01:20:07.185Z,2.07
2023-03-27T01:22:58.591Z,2.20
2023-03-27T01:26:02.604Z,2.30
2023-03-27T01:28:44.728Z,2.30
2023-03-27T01:31:26.608Z,2.30
2023-03-27T01:34:41.234Z,2.70
2023-03-27T01:37:33.694Z,3.07
2023-03-27T01:40:08.028Z,2.53
2023-03-27T01:42:40.568Z,2.83
2023-03-27T01:45:16.205Z,2.50
2023-03-27T01:47:52.735Z,2.67
2023-03-27T01:50:26.275Z,2.43
2023-03-27T01:52:59.598Z,2.87
2023-03-27T01:55:34.477Z,2.60
2023-03-27T01:58:08.131Z,2.70
2023-03-27T02:00:51.444Z,2.73
2023-03-27T02:03:26.683Z,2.50
2023-03-27T02:05:58.570Z,2.70
2023-03-27T02:08:32.244Z,3.10
2023-03-27T02:11:02.166Z,3.27
2023-03-27T02:13:36.014Z,3.00
2023-03-27T02:16:07.292Z,3.40
2023-03-27T02:18:40.758Z,2.80
2023-03-27T02:21:09.266Z,2.93
2023-03-27T02:23:38.345Z,2.73
2023-03-27T02:26:10.839Z,3.17
2023-03-27T02:28:51.481Z,3.43
2023-03-27T02:31:42.539Z,3.00
2023-03-27T02:34:29.124Z,3.00
2023-03-27T02:37:06.654Z,3.20
2023-03-27T02:39:41.722Z,2.93
2023-03-27T02:42:19.515Z,3.17
2023-03-27T02:44:52.860Z,3.37
2023-03-27T02:47:28.742Z,3.50
2023-03-27T02:50:02.996Z,3.13
2023-03-27T02:52:36.758Z,3.27
2023-03-27T02:55:09.311Z,3.30
2023-03-27T02:57:40.266Z,2.73
2023-03-27T03:00:25.424Z,2.73
2023-03-27T03:02:59.617Z,2.57
2023-03-27T03:05:28.897Z,2.67
2023-03-27T03:07:58.212Z,2.53
2023-03-27T03:10:28.837Z,2.73
2023-03-27T03:12:58.578Z,2.50
2023-03-27T03:15:27.118Z,2.10
2023-03-27T03:17:55.704Z,2.40
2023-03-27T03:20:24.008Z,2.30
2023-03-27T03:22:52.587Z,2.30
2023-03-27T03:25:21.002Z,2.53
2023-03-27T03:27:49.284Z,2.87
2023-03-27T03:30:19.477Z,3.10
2023-03-27T03:32:48.287Z,3.03
2023-03-27T03:35:17.548Z,2.90
2023-03-27T03:37:51.198Z,2.93
2023-03-27T03:40:20.908Z,2.40
2023-03-27T03:42:50.610Z,2.73
2023-03-27T03:45:21.388Z,2.40
2023-03-27T03:47:49.517Z,2.87
2023-03-27T03:50:18.277Z,2.60
2023-03-27T03:52:47.204Z,2.30
2023-03-27T03:55:15.975Z,2.50
2023-03-27T03:57:48.419Z,2.67
2023-03-27T04:00:18.721Z,2.80
2023-03-27T04:02:52.322Z,3.10
2023-03-27T04:05:20.994Z,2.77
2023-03-27T04:07:49.832Z,3.10
2023-03-27T04:10:18.985Z,3.10
2023-03-27T04:12:50.736Z,3.00
2023-03-27T04:15:19.325Z,3.40
2023-03-27T04:17:49.432Z,3.10
2023-03-27T04:20:18.513Z,3.40
2023-03-27T04:22:48.117Z,3.53
2023-03-27T04:25:18.467Z,3.40
2023-03-27T04:27:46.893Z,3.10
2023-03-27T04:30:15.962Z,3.20
2023-03-27T04:32:44.694Z,3.23
2023-03-27T04:35:15.495Z,2.87
2023-03-27T04:37:43.800Z,2.80
2023-03-27T04:40:17.937Z,3.00
2023-03-27T04:42:46.533Z,3.13
2023-03-27T04:45:17.778Z,3.30
2023-03-27T04:47:46.482Z,3.37
2023-03-27T04:50:16.773Z,2.90
2023-03-27T04:52:47.922Z,3.20
2023-03-27T04:55:18.458Z,3.70
2023-03-27T04:57:47.613Z,3.63
2023-03-27T05:00:19.431Z,3.80
2023-03-27T05:02:48.754Z,3.43
2023-03-27T05:05:19.423Z,3.80
2023-03-27T05:07:48.032Z,4.10
2023-03-27T05:10:17.444Z,3.87
2023-03-27T05:12:51.946Z,4.03
2023-03-27T05:15:21.633Z,4.13
2023-03-27T05:17:55.186Z,4.87
2023-03-27T05:20:24.991Z,4.40
2023-03-27T05:22:54.799Z,5.20
2023-03-27T05:25:23.054Z,8.17
2023-03-27T05:27:52.864Z,7.53
2023-03-27T05:30:23.080Z,3.90
2023-03-27T05:32:53.176Z,3.50
2023-03-27T05:35:24.563Z,3.10
2023-03-27T05:37:54.597Z,3.10
2023-03-27T05:40:25.884Z,2.80
2023-03-27T05:42:55.143Z,2.60
2023-03-27T05:45:24.276Z,2.20
2023-03-27T05:47:54.026Z,2.40
2023-03-27T05:50:30.034Z,2.57
2023-03-27T05:52:59.729Z,2.50
2023-03-27T05:55:28.308Z,2.03
2023-03-27T05:57:56.668Z,2.10
2023-03-27T06:00:26.423Z,1.90
2023-03-27T06:02:56.338Z,2.10
2023-03-27T06:05:27.795Z,2.17
2023-03-27T06:07:58.523Z,2.30
2023-03-27T06:10:28.120Z,2.20
2023-03-27T06:13:04.538Z,2.60
2023-03-27T06:15:33.153Z,2.30
2023-03-27T06:18:01.407Z,2.43
2023-03-27T06:20:31.200Z,2.47
2023-03-27T06:23:01.017Z,2.50
2023-03-27T06:25:32.112Z,2.43
2023-03-27T06:28:01.050Z,7.43
2023-03-27T06:30:30.351Z,5.50
2023-03-27T06:33:00.175Z,4.47
2023-03-27T06:35:32.072Z,3.60
2023-03-27T06:38:02.763Z,4.00
2023-03-27T06:40:32.879Z,3.03
2023-03-27T06:43:02.573Z,4.00
2023-03-27T06:45:32.477Z,4.73
2023-03-27T06:48:16.248Z,3.10
2023-03-27T06:50:50.407Z,3.33
2023-03-27T06:55:51.554Z,3.00
2023-03-27T06:58:19.854Z,2.50
2023-03-27T07:00:48.893Z,2.80
2023-03-27T07:03:18.297Z,2.50
2023-03-27T07:05:49.068Z,2.60
2023-03-27T07:08:24.470Z,2.37
2023-03-27T07:11:07.977Z,2.47
2023-03-27T07:13:41.291Z,2.83
2023-03-27T07:16:11.456Z,2.50
2023-03-27T07:18:39.671Z,2.60
2023-03-27T07:21:09.603Z,2.60
2023-03-27T07:23:38.026Z,2.60
2023-03-27T07:26:06.804Z,3.37
2023-03-27T07:28:38.463Z,3.20
2023-03-27T07:31:25.883Z,3.57
2023-03-27T07:34:01.162Z,2.80
2023-03-27T07:36:31.024Z,3.07
2023-03-27T07:38:59.151Z,3.30
2023-03-27T07:41:30.242Z,3.47
2023-03-27T07:43:58.683Z,3.10
2023-03-27T07:46:28.052Z,2.90
2023-03-27T07:48:56.814Z,3.23
2023-03-27T07:51:25.487Z,2.83
2023-03-27T07:53:58.707Z,2.90
2023-03-27T07:56:28.108Z,3.03
2023-03-27T07:58:56.363Z,2.70
2023-03-27T08:01:26.027Z,3.10
2023-03-27T08:03:54.412Z,2.60
2023-03-27T08:06:23.243Z,2.37
2023-03-27T08:08:52.128Z,2.43
2023-03-27T08:11:30.400Z,2.60
2023-03-27T08:13:59.933Z,2.13
2023-03-27T08:16:30.331Z,2.10
2023-03-27T08:19:00.930Z,2.50
2023-03-27T08:21:31.893Z,2.50
2023-03-27T08:24:00.611Z,2.57
2023-03-27T08:26:30.626Z,2.63
2023-03-27T08:28:58.784Z,2.80
2023-03-27T08:31:29.323Z,2.67
2023-03-27T08:33:57.961Z,2.80
2023-03-27T08:36:27.314Z,2.70
2023-03-27T08:38:55.562Z,2.20
2023-03-27T08:41:30.862Z,2.50
2023-03-27T08:44:03.959Z,2.37
2023-03-27T08:46:38.913Z,2.50
2023-03-27T08:49:14.372Z,2.30
2023-03-27T08:51:48.401Z,3.03
2023-03-27T08:54:20.113Z,2.50
2023-03-27T08:56:50.582Z,4.20
2023-03-27T08:59:21.018Z,5.30
2023-03-27T09:01:57.688Z,7.97
2023-03-27T09:04:37.416Z,3.07
2023-03-27T09:07:11.790Z,2.73
2023-03-27T09:09:52.431Z,2.07
2023-03-27T09:12:38.333Z,2.20
2023-03-27T09:15:12.448Z,2.03
2023-03-27T09:17:45.525Z,2.13
2023-03-27T09:20:19.220Z,1.73
2023-03-27T09:22:53.019Z,2.10
2023-03-27T09:25:26.063Z,2.03
2023-03-27T09:27:56.363Z,2.17
2023-03-27T09:30:27.934Z,2.30
2023-03-27T09:33:00.931Z,2.37
2023-03-27T09:35:29.146Z,1.70
2023-03-27T09:38:01.388Z,2.20
2023-03-27T09:40:37.548Z,2.37
2023-03-27T09:43:16.392Z,3.13
2023-03-27T09:45:47.687Z,2.20
2023-03-27T09:48:25.633Z,1.57
2023-03-27T09:50:53.775Z,1.80
2023-03-27T09:53:23.059Z,1.80
2023-03-27T09:55:54.830Z,2.00
2023-03-27T09:58:33.664Z,2.10
2023-03-27T10:01:10.560Z,2.27
2023-03-27T10:03:40.901Z,2.00
2023-03-27T10:06:11.830Z,2.10
2023-03-27T10:08:42.078Z,2.63
2023-03-27T10:11:17.483Z,2.17
2023-03-27T10:13:49.198Z,1.83
2023-03-27T10:16:20.110Z,2.10
2023-03-27T10:18:50.984Z,1.97
2023-03-27T10:21:26.285Z,2.20
2023-03-27T10:24:01.390Z,1.90
2023-03-27T10:26:33.844Z,2.10
2023-03-27T10:29:21.530Z,2.17
2023-03-27T10:31:52.646Z,2.00
2023-03-27T10:34:37.570Z,2.17
2023-03-27T10:37:20.637Z,2.60
2023-03-27T10:39:49.153Z,1.90
2023-03-27T10:42:19.075Z,1.70
2023-03-27T10:44:50.110Z,1.90
2023-03-27T10:47:21.251Z,2.00
2023-03-27T10:49:59.258Z,2.17
2023-03-27T10:52:34.917Z,2.30
2023-03-27T10:55:16.928Z,1.80
2023-03-27T10:57:52.496Z,1.90
2023-03-27T11:00:32.694Z,2.23
2023-03-27T11:03:05.468Z,1.60
2023-03-27T11:05:38.932Z,1.60
2023-03-27T11:08:12.978Z,1.70
2023-03-27T11:10:44.050Z,1.80
2023-03-27T11:13:18.482Z,1.73
2023-03-27T11:15:54.159Z,1.50
2023-03-27T11:18:26.898Z,2.03
2023-03-27T11:20:59.861Z,1.73
2023-03-27T11:23:35.048Z,1.93
2023-03-27T11:26:06.815Z,1.80
2023-03-27T11:28:42.908Z,2.10
2023-03-27T11:31:17.886Z,2.20
2023-03-27T11:33:49.950Z,2.10
2023-03-27T11:36:39.822Z,1.97
2023-03-27T11:39:17.502Z,1.97
2023-03-27T11:41:52.418Z,1.80
2023-03-27T11:44:21.358Z,2.10
2023-03-27T11:47:13.298Z,1.87
2023-03-27T11:49:55.734Z,1.70
2023-03-27T11:52:39.494Z,1.53
2023-03-27T11:55:15.392Z,1.93
2023-03-27T11:57:59.617Z,2.33
2023-03-27T12:00:33.981Z,2.77
2023-03-27T12:03:20.299Z,2.57
2023-03-27T12:06:02.071Z,2.50
2023-03-27T12:08:38.922Z,2.63
2023-03-27T12:11:09.719Z,2.60
2023-03-27T12:14:02.121Z,2.27
2023-03-27T12:16:48.924Z,2.30
2023-03-27T12:19:39.029Z,1.80
2023-03-27T12:22:23.901Z,1.87
2023-03-27T12:25:06.837Z,2.40
2023-03-27T12:27:47.348Z,1.80
2023-03-27T12:30:24.621Z,1.73
2023-03-27T12:33:22.018Z,1.80
2023-03-27T12:35:54.393Z,1.50
2023-03-27T12:38:29.749Z,1.80
2023-03-27T12:41:14.000Z,1.67
2023-03-27T12:43:46.288Z,1.97
2023-03-27T12:46:20.931Z,1.80
2023-03-27T12:48:57.795Z,1.97
2023-03-27T12:51:48.442Z,2.00
2023-03-27T12:54:27.228Z,1.80
2023-03-27T12:57:05.923Z,2.13
2023-03-27T12:59:37.777Z,1.87
2023-03-27T13:03:00.765Z,2.03
2023-03-27T13:05:59.231Z,2.33
2023-03-27T13:08:50.584Z,1.93
2023-03-27T13:11:36.763Z,2.00
2023-03-27T13:14:35.615Z,2.30
2023-03-27T13:17:22.313Z,2.23
2023-03-27T13:20:09.339Z,2.57
2023-03-27T13:22:50.899Z,2.37
2023-03-27T13:25:34.894Z,1.83
2023-03-27T13:28:28.341Z,1.80
2023-03-27T13:30:58.930Z,2.27
2023-03-27T13:33:38.963Z,1.80
2023-03-27T13:36:14.771Z,2.20
2023-03-27T13:39:15.577Z,1.83
2023-03-27T13:42:08.273Z,2.00
2023-03-27T13:44:44.347Z,2.37
2023-03-27T13:47:38.230Z,2.00
2023-03-27T13:50:36.412Z,2.20
2023-03-27T13:53:33.194Z,2.10
2023-03-27T13:56:11.100Z,2.00
2023-03-27T13:59:35.737Z,1.70
2023-03-27T14:02:28.373Z,2.03
2023-03-27T14:05:21.540Z,2.17
2023-03-27T14:08:05.964Z,1.83
2023-03-27T14:11:01.493Z,1.87
2023-03-27T14:13:41.820Z,2.77
2023-03-27T14:16:44.979Z,2.30
2023-03-27T14:19:36.855Z,1.83
2023-03-27T14:22:11.031Z,2.63
2023-03-27T14:24:43.650Z,2.20
2023-03-27T14:27:15.945Z,2.10
2023-03-27T14:29:45.206Z,1.70
2023-03-27T14:32:17.413Z,2.40
2023-03-27T14:34:54.693Z,1.90
2023-03-27T14:37:30.109Z,2.60
2023-03-27T14:40:00.810Z,2.00
2023-03-27T14:42:32.875Z,2.07
2023-03-27T14:45:20.640Z,2.13
2023-03-27T14:47:52.980Z,1.80
2023-03-27T14:50:21.606Z,1.80
2023-03-27T14:52:53.716Z,1.70
2023-03-27T14:55:26.004Z,1.83
2023-03-27T14:57:58.934Z,1.80
2023-03-27T15:00:29.863Z,1.80
2023-03-27T15:03:05.221Z,1.73
2023-03-27T15:05:33.823Z,2.00
2023-03-27T15:08:02.178Z,1.67
2023-03-27T15:10:32.734Z,1.40
2023-03-27T15:13:01.108Z,1.80
2023-03-27T15:15:38.965Z,1.80
2023-03-27T15:18:15.621Z,1.70
2023-03-27T15:20:44.979Z,1.70
2023-03-27T15:23:19.281Z,2.37
2023-03-27T15:25:56.088Z,3.00
2023-03-27T15:28:34.042Z,1.80
2023-03-27T15:31:04.408Z,2.10
2023-03-27T15:33:38.403Z,2.53
2023-03-27T15:36:10.318Z,2.20
2023-03-27T15:38:38.960Z,2.10
2023-03-27T15:41:46.300Z,1.63
2023-03-27T15:44:19.003Z,1.90
2023-03-27T15:46:56.085Z,1.77
2023-03-27T15:49:34.296Z,1.77
2023-03-27T15:52:30.451Z,2.00
2023-03-27T15:54:59.086Z,1.87
2023-03-27T15:57:29.337Z,1.90
2023-03-27T16:00:02.363Z,1.77
2023-03-27T16:02:31.201Z,1.40
2023-03-27T16:05:01.223Z,1.87
2023-03-27T16:07:32.674Z,1.93
2023-03-27T16:10:05.174Z,2.07
2023-03-27T16:12:48.989Z,2.13
2023-03-27T16:15:29.398Z,2.07
2023-03-27T16:17:59.018Z,1.77
2023-03-27T16:20:39.998Z,2.40
2023-03-27T16:23:08.812Z,2.00
2023-03-27T16:25:37.386Z,2.00
2023-03-27T16:28:11.340Z,1.60
2023-03-27T16:30:41.876Z,1.93
2023-03-27T16:33:15.784Z,1.70
2023-03-27T16:35:47.461Z,2.10
2023-03-27T16:38:16.691Z,2.33
2023-03-27T16:40:45.540Z,1.73
2023-03-27T16:43:14.886Z,1.80
2023-03-27T16:45:43.607Z,2.00
2023-03-27T16:48:13.439Z,2.00
2023-03-27T16:50:41.830Z,2.20
2023-03-27T16:53:11.574Z,2.00
2023-03-27T16:55:39.813Z,1.67
2023-03-27T16:58:07.952Z,2.03
2023-03-27T17:00:36.269Z,1.63
2023-03-27T17:03:04.876Z,1.63
2023-03-27T17:05:34.442Z,1.70
2023-03-27T17:08:04.150Z,1.80
2023-03-27T17:10:35.006Z,2.30
2023-03-27T17:13:03.317Z,1.80
2023-03-27T17:15:31.472Z,1.60
2023-03-27T17:17:59.873Z,1.77
2023-03-27T17:20:28.188Z,1.87
2023-03-27T17:22:58.394Z,1.70
2023-03-27T17:25:27.652Z,1.83
2023-03-27T17:27:57.336Z,1.70
2023-03-27T17:30:38.107Z,1.70
2023-03-27T17:33:09.231Z,2.00
2023-03-27T17:35:39.751Z,2.03
2023-03-27T17:38:08.736Z,1.80
2023-03-27T17:40:40.469Z,2.37
2023-03-27T17:43:10.634Z,2.10
2023-03-27T17:45:41.982Z,2.10
2023-03-27T17:48:11.399Z,2.23
2023-03-27T17:50:39.656Z,1.90
2023-03-27T17:53:08.083Z,2.20
2023-03-27T17:55:38.837Z,2.00
2023-03-27T17:58:09.926Z,1.90
2023-03-27T18:00:41.320Z,1.70
2023-03-27T18:03:10.055Z,2.23
2023-03-27T18:05:38.750Z,2.10
2023-03-27T18:08:08.794Z,2.40
2023-03-27T18:10:37.101Z,2.40
2023-03-27T18:13:05.308Z,2.23
2023-03-27T18:15:33.754Z,2.33
2023-03-27T18:18:03.641Z,2.27
2023-03-27T18:20:31.884Z,2.50
2023-03-27T18:23:01.321Z,3.07
2023-03-27T18:25:30.424Z,2.30
2023-03-27T18:27:59.603Z,2.90
2023-03-27T18:30:27.840Z,3.17
2023-03-27T18:32:56.218Z,2.60
2023-03-27T18:35:26.121Z,3.00
2023-03-27T18:37:54.460Z,2.80
2023-03-27T18:40:22.625Z,3.00
2023-03-27T18:42:50.881Z,3.20
2023-03-27T18:45:19.310Z,2.90
2023-03-27T18:47:47.677Z,3.30
2023-03-27T18:50:16.764Z,2.80
2023-03-27T18:52:46.350Z,3.27
2023-03-27T18:55:15.200Z,3.10
2023-03-27T18:57:43.324Z,3.40
2023-03-27T19:00:18.427Z,3.40
2023-03-27T19:02:48.006Z,3.27
2023-03-27T19:05:17.093Z,3.10
2023-03-27T19:07:47.083Z,3.10
2023-03-27T19:10:15.312Z,3.40
2023-03-27T19:12:43.622Z,3.20
2023-03-27T19:17:47.654Z,3.60
2023-03-27T19:20:16.104Z,3.33
2023-03-27T19:23:05.665Z,3.60
2023-03-27T19:25:34.491Z,3.23
2023-03-27T19:28:03.111Z,3.47
2023-03-27T19:30:31.566Z,3.67
2023-03-27T19:33:00.175Z,4.47
2023-03-27T19:35:28.545Z,5.63
2023-03-27T19:37:56.838Z,4.93
2023-03-27T19:40:26.360Z,5.00
2023-03-27T19:42:54.517Z,5.27
2023-03-27T19:45:22.772Z,5.97
2023-03-27T19:47:51.051Z,6.97
2023-03-27T19:50:19.354Z,7.27
2023-03-27T19:52:57.379Z,7.33
2023-03-27T19:55:35.664Z,6.10
2023-03-27T19:58:03.828Z,5.40
2023-03-27T20:00:32.605Z,4.63
2023-03-27T20:03:01.998Z,4.50
2023-03-27T20:05:30.467Z,4.60
2023-03-27T20:07:58.568Z,6.37
2023-03-27T20:10:27.249Z,6.03
2023-03-27T20:12:57.216Z,4.80
2023-03-27T20:15:25.408Z,4.67
2023-03-27T20:17:53.565Z,5.23
2023-03-27T20:20:21.849Z,5.30
2023-03-27T20:22:57.701Z,5.53
2023-03-27T20:25:28.495Z,5.80
2023-03-27T20:27:58.003Z,6.10
2023-03-27T20:30:26.543Z,6.47
2023-03-27T20:32:55.757Z,5.77
2023-03-27T20:35:25.161Z,6.23
2023-03-27T20:37:57.960Z,5.43
2023-03-27T20:40:27.411Z,8.20
2023-03-27T20:43:03.491Z,8.03
2023-03-27T20:45:32.219Z,6.20
2023-03-27T20:48:04.054Z,6.23
2023-03-27T20:50:35.872Z,6.23
2023-03-27T20:53:06.178Z,6.33
2023-03-27T20:55:39.500Z,6.33
2023-03-27T20:58:11.741Z,6.37
2023-03-27T21:00:40.281Z,6.90
2023-03-27T21:03:08.617Z,6.57
2023-03-27T21:05:38.373Z,7.57
2023-03-27T21:08:09.687Z,7.77
2023-03-27T21:10:38.727Z,7.87
2023-03-27T21:13:07.123Z,8.00
2023-03-27T21:15:36.684Z,8.23
2023-03-27T21:18:05.074Z,8.20
2023-03-27T21:20:35.200Z,8.30
2023-03-27T21:23:03.697Z,8.30
2023-03-27T21:25:31.989Z,8.33
2023-03-27T21:28:00.800Z,8.00
2023-03-27T21:30:46.952Z,7.47
2023-03-27T21:33:19.250Z,7.93
2023-03-27T21:35:48.281Z,8.60
2023-03-27T21:38:17.647Z,8.10
2023-03-27T21:40:47.825Z,7.70
2023-03-27T21:43:16.271Z,8.60
2023-03-27T21:45:45.125Z,8.00
2023-03-27T21:48:13.589Z,8.33
2023-03-27T21:50:43.360Z,9.30
2023-03-27T21:53:11.519Z,9.63
2023-03-27T21:55:39.727Z,9.40
2023-03-27T21:58:07.866Z,9.10
2023-03-27T22:00:36.141Z,8.43
2023-03-27T22:03:04.322Z,8.30
2023-03-27T22:05:32.442Z,9.00
2023-03-27T22:08:02.011Z,8.57
2023-03-27T22:10:30.196Z,8.70
2023-03-27T22:12:58.522Z,8.40
2023-03-27T22:15:26.722Z,7.97
2023-03-27T22:17:55.177Z,8.60
2023-03-27T22:20:23.744Z,7.23
2023-03-27T22:22:51.924Z,8.60
2023-03-27T22:25:21.616Z,8.67
2023-03-27T22:27:50.693Z,9.50
2023-03-27T22:30:19.352Z,8.10
2023-03-27T22:32:48.003Z,7.97
2023-03-27T22:35:16.910Z,8.70
2023-03-27T22:37:45.160Z,7.90
2023-03-27T22:40:13.871Z,8.03
2023-03-27T22:42:43.596Z,8.37
2023-03-27T22:45:12.387Z,7.47
2023-03-27T22:47:40.837Z,8.27
2023-03-27T22:50:10.174Z,8.03
2023-03-27T22:52:38.345Z,7.63
2023-03-27T22:55:07.596Z,7.97
2023-03-27T22:57:37.867Z,8.13
2023-03-27T23:00:09.156Z,7.63
2023-03-27T23:02:37.401Z,6.83
2023-03-27T23:05:06.101Z,7.67
2023-03-27T23:07:34.532Z,7.67
2023-03-27T23:10:02.686Z,7.07
2023-03-27T23:12:31.214Z,6.77
2023-03-27T23:14:59.356Z,7.10
2023-03-27T23:17:28.946Z,7.20
2023-03-27T23:19:57.318Z,6.73
2023-03-27T23:22:25.825Z,6.17
2023-03-27T23:24:55.011Z,7.10
2023-03-27T23:27:23.321Z,7.23
2023-03-27T23:29:51.636Z,6.83
2023-03-27T23:32:19.748Z,6.60
2023-03-27T23:34:49.306Z,6.80
2023-03-27T23:37:17.477Z,6.33
2023-03-27T23:39:46.155Z,6.63
2023-03-27T23:42:14.395Z,6.63
2023-03-27T23:44:42.489Z,7.53
2023-03-27T23:47:11.269Z,6.20
2023-03-27T23:49:39.723Z,6.43
2023-03-27T23:52:09.556Z,6.33
2023-03-27T23:54:38.119Z,7.13
2023-03-27T23:57:06.456Z,6.33
2023-03-27T23:59:38.203Z,6.33
